sensor_id;sensor_type;location;lat;lon;timestamp;P1;durP1;ratioP1;P2;durP2;ratioP2
21521;SDS011;10922;45.572;10.002;2022-12-08T00:00:51;52.30;;;41.58;;
21521;SDS011;10922;45.572;10.002;2022-12-08T00:03:17;50.90;;;42.90;;
21521;SDS011;10922;45.572;10.002;2022-12-08T00:05:43;53.65;;;45.65;;
21521;SDS011;10922;45.572;10.002;2022-12-08T00:08:29;51.80;;;43.50;;
21521;SDS011;10922;45.572;10.002;2022-12-08T00:11:13;37.25;;;31.70;;
21521;SDS011;10922;45.572;10.002;2022-12-08T00:13:39;46.05;;;39.08;;
21521;SDS011;10922;45.572;10.002;2022-12-08T00:16:05;46.60;;;38.45;;
21521;SDS011;10922;45.572;10.002;2022-12-08T00:18:30;21.30;;;18.60;;
21521;SDS011;10922;45.572;10.002;2022-12-08T00:20:56;14.40;;;12.63;;
21521;SDS011;10922;45.572;10.002;2022-12-08T00:23:23;10.93;;;9.82;;
21521;SDS011;10922;45.572;10.002;2022-12-08T00:25:49;12.32;;;9.02;;
21521;SDS011;10922;45.572;10.002;2022-12-08T00:28:14;16.67;;;12.60;;
21521;SDS011;10922;45.572;10.002;2022-12-08T00:30:40;9.80;;;7.70;;
21521;SDS011;10922;45.572;10.002;2022-12-08T00:33:07;10.57;;;9.48;;
21521;SDS011;10922;45.572;10.002;2022-12-08T00:35:33;8.52;;;7.20;;
21521;SDS011;10922;45.572;10.002;2022-12-08T00:37:59;8.80;;;7.90;;
21521;SDS011;10922;45.572;10.002;2022-12-08T00:40:24;9.77;;;8.20;;
21521;SDS011;10922;45.572;10.002;2022-12-08T00:42:50;10.18;;;8.80;;
21521;SDS011;10922;45.572;10.002;2022-12-08T00:45:16;13.40;;;11.27;;
21521;SDS011;10922;45.572;10.002;2022-12-08T00:47:41;17.35;;;14.32;;
21521;SDS011;10922;45.572;10.002;2022-12-08T00:50:07;8.73;;;7.57;;
21521;SDS011;10922;45.572;10.002;2022-12-08T00:52:33;9.30;;;7.80;;
21521;SDS011;10922;45.572;10.002;2022-12-08T00:54:59;11.07;;;9.02;;
21521;SDS011;10922;45.572;10.002;2022-12-08T00:57:25;12.63;;;10.13;;
21521;SDS011;10922;45.572;10.002;2022-12-08T00:59:50;11.57;;;10.00;;
21521;SDS011;10922;45.572;10.002;2022-12-08T01:02:16;13.02;;;9.23;;
21521;SDS011;10922;45.572;10.002;2022-12-08T01:04:42;14.10;;;12.33;;
21521;SDS011;10922;45.572;10.002;2022-12-08T01:07:07;19.40;;;15.57;;
21521;SDS011;10922;45.572;10.002;2022-12-08T01:09:33;19.88;;;16.25;;
21521;SDS011;10922;45.572;10.002;2022-12-08T01:11:59;20.15;;;16.20;;
21521;SDS011;10922;45.572;10.002;2022-12-08T01:14:25;22.52;;;18.08;;
21521;SDS011;10922;45.572;10.002;2022-12-08T01:16:51;17.23;;;14.02;;
21521;SDS011;10922;45.572;10.002;2022-12-08T01:19:17;16.48;;;14.32;;
21521;SDS011;10922;45.572;10.002;2022-12-08T01:21:43;15.43;;;13.30;;
21521;SDS011;10922;45.572;10.002;2022-12-08T01:24:10;15.63;;;13.55;;
21521;SDS011;10922;45.572;10.002;2022-12-08T01:26:37;15.52;;;12.05;;
21521;SDS011;10922;45.572;10.002;2022-12-08T01:29:03;10.27;;;7.60;;
21521;SDS011;10922;45.572;10.002;2022-12-08T01:31:29;13.20;;;10.85;;
21521;SDS011;10922;45.572;10.002;2022-12-08T01:33:54;7.80;;;6.57;;
21521;SDS011;10922;45.572;10.002;2022-12-08T01:36:22;10.88;;;9.73;;
21521;SDS011;10922;45.572;10.002;2022-12-08T01:38:52;8.82;;;7.25;;
21521;SDS011;10922;45.572;10.002;2022-12-08T01:41:20;7.10;;;6.00;;
21521;SDS011;10922;45.572;10.002;2022-12-08T01:43:57;7.45;;;6.38;;
21521;SDS011;10922;45.572;10.002;2022-12-08T01:46:25;7.53;;;5.30;;
21521;SDS011;10922;45.572;10.002;2022-12-08T01:48:58;6.90;;;5.83;;
21521;SDS011;10922;45.572;10.002;2022-12-08T01:51:25;7.60;;;5.57;;
21521;SDS011;10922;45.572;10.002;2022-12-08T01:53:51;6.50;;;5.57;;
21521;SDS011;10922;45.572;10.002;2022-12-08T01:56:24;6.03;;;5.20;;
21521;SDS011;10922;45.572;10.002;2022-12-08T01:58:57;7.05;;;6.00;;
21521;SDS011;10922;45.572;10.002;2022-12-08T02:01:24;7.35;;;5.68;;
21521;SDS011;10922;45.572;10.002;2022-12-08T02:03:59;6.82;;;5.80;;
21521;SDS011;10922;45.572;10.002;2022-12-08T02:06:27;6.90;;;5.53;;
21521;SDS011;10922;45.572;10.002;2022-12-08T02:08:55;6.25;;;5.55;;
21521;SDS011;10922;45.572;10.002;2022-12-08T02:11:23;10.85;;;7.00;;
21521;SDS011;10922;45.572;10.002;2022-12-08T02:13:49;7.17;;;5.77;;
21521;SDS011;10922;45.572;10.002;2022-12-08T02:18:58;6.90;;;5.80;;
21521;SDS011;10922;45.572;10.002;2022-12-08T02:24:27;9.48;;;6.85;;
21521;SDS011;10922;45.572;10.002;2022-12-08T02:30:12;7.85;;;5.90;;
21521;SDS011;10922;45.572;10.002;2022-12-08T02:35:59;6.22;;;5.63;;
21521;SDS011;10922;45.572;10.002;2022-12-08T02:44:01;6.17;;;5.53;;
21521;SDS011;10922;45.572;10.002;2022-12-08T02:46:37;5.80;;;4.90;;
21521;SDS011;10922;45.572;10.002;2022-12-08T02:49:16;6.00;;;5.40;;
21521;SDS011;10922;45.572;10.002;2022-12-08T02:51:42;7.57;;;5.60;;
21521;SDS011;10922;45.572;10.002;2022-12-08T02:54:08;8.98;;;6.05;;
21521;SDS011;10922;45.572;10.002;2022-12-08T02:56:38;5.20;;;4.57;;
21521;SDS011;10922;45.572;10.002;2022-12-08T03:02:32;5.93;;;4.50;;
21521;SDS011;10922;45.572;10.002;2022-12-08T03:05:41;4.75;;;4.25;;
21521;SDS011;10922;45.572;10.002;2022-12-08T03:08:51;8.13;;;4.60;;
21521;SDS011;10922;45.572;10.002;2022-12-08T03:11:29;5.57;;;5.00;;
21521;SDS011;10922;45.572;10.002;2022-12-08T03:14:13;6.20;;;4.80;;
21521;SDS011;10922;45.572;10.002;2022-12-08T03:16:41;6.40;;;4.85;;
21521;SDS011;10922;45.572;10.002;2022-12-08T03:19:12;6.68;;;5.22;;
21521;SDS011;10922;45.572;10.002;2022-12-08T03:21:47;7.03;;;5.47;;
21521;SDS011;10922;45.572;10.002;2022-12-08T03:24:15;6.50;;;5.05;;
21521;SDS011;10922;45.572;10.002;2022-12-08T03:26:45;6.03;;;4.85;;
21521;SDS011;10922;45.572;10.002;2022-12-08T03:29:15;7.45;;;5.35;;
21521;SDS011;10922;45.572;10.002;2022-12-08T03:31:44;7.10;;;4.80;;
21521;SDS011;10922;45.572;10.002;2022-12-08T03:34:14;7.38;;;4.75;;
21521;SDS011;10922;45.572;10.002;2022-12-08T03:36:43;5.87;;;4.73;;
21521;SDS011;10922;45.572;10.002;2022-12-08T03:39:09;5.90;;;5.10;;
21521;SDS011;10922;45.572;10.002;2022-12-08T03:41:35;5.80;;;4.80;;
21521;SDS011;10922;45.572;10.002;2022-12-08T03:44:00;5.53;;;4.73;;
21521;SDS011;10922;45.572;10.002;2022-12-08T03:46:27;6.63;;;4.95;;
21521;SDS011;10922;45.572;10.002;2022-12-08T03:48:54;7.97;;;6.43;;
21521;SDS011;10922;45.572;10.002;2022-12-08T03:51:20;16.90;;;13.57;;
21521;SDS011;10922;45.572;10.002;2022-12-08T03:53:46;24.90;;;21.13;;
21521;SDS011;10922;45.572;10.002;2022-12-08T03:56:26;26.43;;;22.90;;
21521;SDS011;10922;45.572;10.002;2022-12-08T03:58:54;31.08;;;25.83;;
21521;SDS011;10922;45.572;10.002;2022-12-08T04:01:20;28.52;;;24.25;;
21521;SDS011;10922;45.572;10.002;2022-12-08T04:03:46;32.90;;;25.35;;
21521;SDS011;10922;45.572;10.002;2022-12-08T04:06:12;29.92;;;24.83;;
21521;SDS011;10922;45.572;10.002;2022-12-08T04:08:39;27.83;;;23.90;;
21521;SDS011;10922;45.572;10.002;2022-12-08T04:11:05;26.55;;;22.00;;
21521;SDS011;10922;45.572;10.002;2022-12-08T04:13:31;25.53;;;21.70;;
21521;SDS011;10922;45.572;10.002;2022-12-08T04:16:00;26.52;;;21.10;;
21521;SDS011;10922;45.572;10.002;2022-12-08T04:18:27;24.92;;;18.13;;
21521;SDS011;10922;45.572;10.002;2022-12-08T04:20:52;22.10;;;17.73;;
21521;SDS011;10922;45.572;10.002;2022-12-08T04:23:18;22.83;;;19.33;;
21521;SDS011;10922;45.572;10.002;2022-12-08T04:25:44;22.92;;;16.40;;
21521;SDS011;10922;45.572;10.002;2022-12-08T04:28:09;17.15;;;14.88;;
21521;SDS011;10922;45.572;10.002;2022-12-08T04:30:35;14.90;;;12.77;;
21521;SDS011;10922;45.572;10.002;2022-12-08T04:33:01;7.93;;;7.13;;
21521;SDS011;10922;45.572;10.002;2022-12-08T04:35:27;7.18;;;6.47;;
21521;SDS011;10922;45.572;10.002;2022-12-08T04:37:52;11.80;;;9.57;;
21521;SDS011;10922;45.572;10.002;2022-12-08T04:40:18;9.30;;;8.10;;
21521;SDS011;10922;45.572;10.002;2022-12-08T04:42:44;10.82;;;9.48;;
21521;SDS011;10922;45.572;10.002;2022-12-08T04:45:09;9.83;;;8.30;;
21521;SDS011;10922;45.572;10.002;2022-12-08T04:47:35;11.00;;;9.65;;
21521;SDS011;10922;45.572;10.002;2022-12-08T04:50:01;10.47;;;9.20;;
21521;SDS011;10922;45.572;10.002;2022-12-08T04:52:27;12.20;;;9.57;;
21521;SDS011;10922;45.572;10.002;2022-12-08T04:54:53;12.25;;;10.82;;
21521;SDS011;10922;45.572;10.002;2022-12-08T04:57:18;11.20;;;9.87;;
21521;SDS011;10922;45.572;10.002;2022-12-08T04:59:44;15.05;;;10.85;;
21521;SDS011;10922;45.572;10.002;2022-12-08T05:02:10;10.33;;;9.23;;
21521;SDS011;10922;45.572;10.002;2022-12-08T05:04:35;12.33;;;10.47;;
21521;SDS011;10922;45.572;10.002;2022-12-08T05:07:01;14.50;;;12.95;;
21521;SDS011;10922;45.572;10.002;2022-12-08T05:09:26;20.73;;;16.73;;
21521;SDS011;10922;45.572;10.002;2022-12-08T05:11:52;31.85;;;24.65;;
21521;SDS011;10922;45.572;10.002;2022-12-08T05:14:18;35.33;;;27.53;;
21521;SDS011;10922;45.572;10.002;2022-12-08T05:16:44;34.92;;;28.17;;
21521;SDS011;10922;45.572;10.002;2022-12-08T05:19:10;35.97;;;29.38;;
21521;SDS011;10922;45.572;10.002;2022-12-08T05:21:37;37.53;;;29.13;;
21521;SDS011;10922;45.572;10.002;2022-12-08T05:24:03;34.53;;;28.67;;
21521;SDS011;10922;45.572;10.002;2022-12-08T05:26:28;32.17;;;26.90;;
21521;SDS011;10922;45.572;10.002;2022-12-08T05:28:54;30.73;;;25.90;;
21521;SDS011;10922;45.572;10.002;2022-12-08T05:31:20;26.58;;;21.17;;
21521;SDS011;10922;45.572;10.002;2022-12-08T05:33:45;26.37;;;20.47;;
21521;SDS011;10922;45.572;10.002;2022-12-08T05:36:13;23.67;;;19.55;;
21521;SDS011;10922;45.572;10.002;2022-12-08T05:38:40;22.25;;;18.38;;
21521;SDS011;10922;45.572;10.002;2022-12-08T05:41:06;21.17;;;15.70;;
21521;SDS011;10922;45.572;10.002;2022-12-08T05:43:33;18.90;;;15.82;;
21521;SDS011;10922;45.572;10.002;2022-12-08T05:45:58;22.80;;;19.53;;
21521;SDS011;10922;45.572;10.002;2022-12-08T05:48:24;26.40;;;21.02;;
21521;SDS011;10922;45.572;10.002;2022-12-08T05:50:50;24.17;;;19.87;;
21521;SDS011;10922;45.572;10.002;2022-12-08T05:53:16;23.63;;;19.33;;
21521;SDS011;10922;45.572;10.002;2022-12-08T05:55:43;24.20;;;18.75;;
21521;SDS011;10922;45.572;10.002;2022-12-08T05:58:11;21.35;;;17.33;;
21521;SDS011;10922;45.572;10.002;2022-12-08T06:00:38;19.60;;;16.92;;
21521;SDS011;10922;45.572;10.002;2022-12-08T06:03:04;21.88;;;16.88;;
21521;SDS011;10922;45.572;10.002;2022-12-08T06:05:33;22.63;;;16.35;;
21521;SDS011;10922;45.572;10.002;2022-12-08T06:07:59;20.27;;;17.38;;
21521;SDS011;10922;45.572;10.002;2022-12-08T06:10:25;20.58;;;17.52;;
21521;SDS011;10922;45.572;10.002;2022-12-08T06:12:50;23.45;;;18.05;;
21521;SDS011;10922;45.572;10.002;2022-12-08T06:15:16;20.73;;;16.83;;
21521;SDS011;10922;45.572;10.002;2022-12-08T06:17:42;20.33;;;16.45;;
21521;SDS011;10922;45.572;10.002;2022-12-08T06:20:08;22.43;;;17.63;;
21521;SDS011;10922;45.572;10.002;2022-12-08T06:22:34;22.55;;;17.85;;
21521;SDS011;10922;45.572;10.002;2022-12-08T06:25:00;21.80;;;17.20;;
21521;SDS011;10922;45.572;10.002;2022-12-08T06:27:26;20.92;;;16.90;;
21521;SDS011;10922;45.572;10.002;2022-12-08T06:29:52;21.47;;;17.97;;
21521;SDS011;10922;45.572;10.002;2022-12-08T06:32:17;23.63;;;17.38;;
21521;SDS011;10922;45.572;10.002;2022-12-08T06:34:43;20.13;;;16.33;;
21521;SDS011;10922;45.572;10.002;2022-12-08T06:37:09;19.73;;;16.25;;
21521;SDS011;10922;45.572;10.002;2022-12-08T06:39:35;23.15;;;17.02;;
21521;SDS011;10922;45.572;10.002;2022-12-08T06:42:00;18.33;;;15.23;;
21521;SDS011;10922;45.572;10.002;2022-12-08T06:44:45;19.50;;;15.27;;
21521;SDS011;10922;45.572;10.002;2022-12-08T06:47:11;18.05;;;14.50;;
21521;SDS011;10922;45.572;10.002;2022-12-08T06:49:36;17.03;;;14.17;;
21521;SDS011;10922;45.572;10.002;2022-12-08T06:52:02;16.90;;;12.73;;
21521;SDS011;10922;45.572;10.002;2022-12-08T06:54:28;16.23;;;12.77;;
21521;SDS011;10922;45.572;10.002;2022-12-08T06:56:53;17.77;;;12.60;;
21521;SDS011;10922;45.572;10.002;2022-12-08T06:59:19;12.37;;;9.57;;
21521;SDS011;10922;45.572;10.002;2022-12-08T07:01:45;12.50;;;10.05;;
21521;SDS011;10922;45.572;10.002;2022-12-08T07:04:10;14.55;;;10.07;;
21521;SDS011;10922;45.572;10.002;2022-12-08T07:06:36;9.02;;;7.38;;
21521;SDS011;10922;45.572;10.002;2022-12-08T07:09:02;8.07;;;5.67;;
21521;SDS011;10922;45.572;10.002;2022-12-08T07:11:28;7.15;;;5.60;;
21521;SDS011;10922;45.572;10.002;2022-12-08T07:13:54;5.53;;;4.60;;
21521;SDS011;10922;45.572;10.002;2022-12-08T07:16:21;6.72;;;4.28;;
21521;SDS011;10922;45.572;10.002;2022-12-08T07:18:47;6.35;;;3.75;;
21521;SDS011;10922;45.572;10.002;2022-12-08T07:21:13;4.28;;;3.80;;
21521;SDS011;10922;45.572;10.002;2022-12-08T07:23:39;5.03;;;3.58;;
21521;SDS011;10922;45.572;10.002;2022-12-08T07:26:06;4.25;;;2.95;;
21521;SDS011;10922;45.572;10.002;2022-12-08T07:28:35;4.07;;;3.00;;
21521;SDS011;10922;45.572;10.002;2022-12-08T07:31:02;4.68;;;2.88;;
21521;SDS011;10922;45.572;10.002;2022-12-08T07:33:28;3.88;;;2.97;;
21521;SDS011;10922;45.572;10.002;2022-12-08T07:35:54;5.93;;;3.20;;
21521;SDS011;10922;45.572;10.002;2022-12-08T07:38:22;3.78;;;3.33;;
21521;SDS011;10922;45.572;10.002;2022-12-08T07:40:48;3.80;;;3.45;;
21521;SDS011;10922;45.572;10.002;2022-12-08T07:43:14;3.47;;;3.00;;
21521;SDS011;10922;45.572;10.002;2022-12-08T07:45:40;3.47;;;3.13;;
21521;SDS011;10922;45.572;10.002;2022-12-08T07:48:06;5.05;;;3.40;;
21521;SDS011;10922;45.572;10.002;2022-12-08T07:50:32;4.30;;;3.20;;
21521;SDS011;10922;45.572;10.002;2022-12-08T07:52:57;3.97;;;3.22;;
21521;SDS011;10922;45.572;10.002;2022-12-08T07:55:23;3.03;;;2.80;;
21521;SDS011;10922;45.572;10.002;2022-12-08T07:57:50;2.83;;;2.50;;
21521;SDS011;10922;45.572;10.002;2022-12-08T08:00:16;4.38;;;3.17;;
21521;SDS011;10922;45.572;10.002;2022-12-08T08:02:42;3.28;;;2.95;;
21521;SDS011;10922;45.572;10.002;2022-12-08T08:05:08;5.40;;;2.83;;
21521;SDS011;10922;45.572;10.002;2022-12-08T08:07:36;3.53;;;2.80;;
21521;SDS011;10922;45.572;10.002;2022-12-08T08:10:02;4.00;;;3.17;;
21521;SDS011;10922;45.572;10.002;2022-12-08T08:12:29;3.28;;;2.60;;
21521;SDS011;10922;45.572;10.002;2022-12-08T08:14:54;3.10;;;2.47;;
21521;SDS011;10922;45.572;10.002;2022-12-08T08:17:20;4.75;;;2.92;;
21521;SDS011;10922;45.572;10.002;2022-12-08T08:19:46;3.70;;;2.80;;
21521;SDS011;10922;45.572;10.002;2022-12-08T08:22:11;3.07;;;2.70;;
21521;SDS011;10922;45.572;10.002;2022-12-08T08:24:37;4.38;;;2.60;;
21521;SDS011;10922;45.572;10.002;2022-12-08T08:27:03;3.17;;;2.80;;
21521;SDS011;10922;45.572;10.002;2022-12-08T08:29:28;3.33;;;2.55;;
21521;SDS011;10922;45.572;10.002;2022-12-08T08:31:54;5.63;;;2.80;;
21521;SDS011;10922;45.572;10.002;2022-12-08T08:34:20;5.83;;;2.80;;
21521;SDS011;10922;45.572;10.002;2022-12-08T08:36:45;4.50;;;3.77;;
21521;SDS011;10922;45.572;10.002;2022-12-08T08:39:11;3.42;;;2.90;;
21521;SDS011;10922;45.572;10.002;2022-12-08T08:41:37;3.63;;;2.80;;
21521;SDS011;10922;45.572;10.002;2022-12-08T08:44:03;3.30;;;2.60;;
21521;SDS011;10922;45.572;10.002;2022-12-08T08:46:29;4.15;;;2.50;;
21521;SDS011;10922;45.572;10.002;2022-12-08T08:48:56;2.80;;;2.60;;
21521;SDS011;10922;45.572;10.002;2022-12-08T08:51:21;5.27;;;4.77;;
21521;SDS011;10922;45.572;10.002;2022-12-08T08:53:47;4.68;;;2.75;;
21521;SDS011;10922;45.572;10.002;2022-12-08T08:56:13;3.28;;;2.70;;
21521;SDS011;10922;45.572;10.002;2022-12-08T08:58:42;3.75;;;2.90;;
21521;SDS011;10922;45.572;10.002;2022-12-08T09:01:08;3.87;;;3.30;;
21521;SDS011;10922;45.572;10.002;2022-12-08T09:03:38;5.60;;;3.20;;
21521;SDS011;10922;45.572;10.002;2022-12-08T09:06:03;4.50;;;3.27;;
21521;SDS011;10922;45.572;10.002;2022-12-08T09:08:29;5.70;;;3.58;;
21521;SDS011;10922;45.572;10.002;2022-12-08T09:10:55;4.50;;;3.40;;
21521;SDS011;10922;45.572;10.002;2022-12-08T09:13:21;10.33;;;8.33;;
21521;SDS011;10922;45.572;10.002;2022-12-08T09:15:46;13.82;;;10.52;;
21521;SDS011;10922;45.572;10.002;2022-12-08T09:18:12;14.30;;;10.27;;
21521;SDS011;10922;45.572;10.002;2022-12-08T09:20:38;23.43;;;15.47;;
21521;SDS011;10922;45.572;10.002;2022-12-08T09:23:03;19.48;;;14.32;;
21521;SDS011;10922;45.572;10.002;2022-12-08T09:25:29;19.08;;;13.68;;
21521;SDS011;10922;45.572;10.002;2022-12-08T09:27:54;18.92;;;14.65;;
21521;SDS011;10922;45.572;10.002;2022-12-08T09:30:20;18.67;;;13.83;;
21521;SDS011;10922;45.572;10.002;2022-12-08T09:32:46;17.17;;;13.13;;
21521;SDS011;10922;45.572;10.002;2022-12-08T09:35:13;19.27;;;13.57;;
21521;SDS011;10922;45.572;10.002;2022-12-08T09:37:38;17.70;;;13.13;;
21521;SDS011;10922;45.572;10.002;2022-12-08T09:40:04;18.40;;;14.55;;
21521;SDS011;10922;45.572;10.002;2022-12-08T09:45:13;20.38;;;15.45;;
21521;SDS011;10922;45.572;10.002;2022-12-08T09:50:13;17.70;;;13.98;;
21521;SDS011;10922;45.572;10.002;2022-12-08T09:52:57;19.65;;;14.48;;
21521;SDS011;10922;45.572;10.002;2022-12-08T09:55:31;17.25;;;14.85;;
21521;SDS011;10922;45.572;10.002;2022-12-08T09:58:05;19.33;;;15.07;;
21521;SDS011;10922;45.572;10.002;2022-12-08T10:00:41;19.37;;;14.53;;
21521;SDS011;10922;45.572;10.002;2022-12-08T10:03:10;18.92;;;14.75;;
21521;SDS011;10922;45.572;10.002;2022-12-08T10:05:38;17.27;;;12.63;;
21521;SDS011;10922;45.572;10.002;2022-12-08T10:08:17;17.08;;;12.05;;
21521;SDS011;10922;45.572;10.002;2022-12-08T10:10:53;14.03;;;11.27;;
21521;SDS011;10922;45.572;10.002;2022-12-08T10:13:32;14.82;;;12.10;;
21521;SDS011;10922;45.572;10.002;2022-12-08T10:18:40;15.80;;;11.97;;
21521;SDS011;10922;45.572;10.002;2022-12-08T10:23:38;15.52;;;12.07;;
21521;SDS011;10922;45.572;10.002;2022-12-08T10:26:11;16.33;;;12.82;;
21521;SDS011;10922;45.572;10.002;2022-12-08T10:28:39;15.73;;;12.77;;
21521;SDS011;10922;45.572;10.002;2022-12-08T10:31:05;15.07;;;11.75;;
21521;SDS011;10922;45.572;10.002;2022-12-08T10:33:31;14.98;;;12.02;;
21521;SDS011;10922;45.572;10.002;2022-12-08T10:35:58;15.63;;;11.95;;
21521;SDS011;10922;45.572;10.002;2022-12-08T10:38:38;16.25;;;12.30;;
21521;SDS011;10922;45.572;10.002;2022-12-08T10:43:37;11.88;;;9.80;;
21521;SDS011;10922;45.572;10.002;2022-12-08T10:46:20;11.10;;;9.60;;
21521;SDS011;10922;45.572;10.002;2022-12-08T10:53:58;13.90;;;11.70;;
21521;SDS011;10922;45.572;10.002;2022-12-08T10:56:25;13.90;;;12.30;;
21521;SDS011;10922;45.572;10.002;2022-12-08T10:59:08;16.30;;;12.57;;
21521;SDS011;10922;45.572;10.002;2022-12-08T11:01:39;14.05;;;11.30;;
21521;SDS011;10922;45.572;10.002;2022-12-08T11:04:10;12.98;;;11.05;;
21521;SDS011;10922;45.572;10.002;2022-12-08T11:06:40;15.50;;;11.27;;
21521;SDS011;10922;45.572;10.002;2022-12-08T11:11:51;15.40;;;11.30;;
21521;SDS011;10922;45.572;10.002;2022-12-08T11:14:23;14.30;;;11.38;;
21521;SDS011;10922;45.572;10.002;2022-12-08T11:17:17;15.70;;;11.43;;
21521;SDS011;10922;45.572;10.002;2022-12-08T11:19:42;15.80;;;11.25;;
21521;SDS011;10922;45.572;10.002;2022-12-08T11:22:33;12.13;;;10.83;;
21521;SDS011;10922;45.572;10.002;2022-12-08T11:25:26;13.57;;;11.00;;
21521;SDS011;10922;45.572;10.002;2022-12-08T11:27:59;12.37;;;10.53;;
21521;SDS011;10922;45.572;10.002;2022-12-08T11:30:34;13.33;;;11.20;;
21521;SDS011;10922;45.572;10.002;2022-12-08T11:33:11;13.50;;;11.43;;
21521;SDS011;10922;45.572;10.002;2022-12-08T11:35:44;15.82;;;11.70;;
21521;SDS011;10922;45.572;10.002;2022-12-08T11:38:29;14.73;;;10.35;;
21521;SDS011;10922;45.572;10.002;2022-12-08T11:41:07;15.95;;;11.88;;
21521;SDS011;10922;45.572;10.002;2022-12-08T11:43:38;14.98;;;12.35;;
21521;SDS011;10922;45.572;10.002;2022-12-08T11:48:57;15.95;;;12.07;;
21521;SDS011;10922;45.572;10.002;2022-12-08T11:51:33;15.93;;;11.85;;
21521;SDS011;10922;45.572;10.002;2022-12-08T11:54:21;13.70;;;11.07;;
21521;SDS011;10922;45.572;10.002;2022-12-08T11:56:54;13.95;;;10.63;;
21521;SDS011;10922;45.572;10.002;2022-12-08T12:01:52;12.60;;;10.68;;
21521;SDS011;10922;45.572;10.002;2022-12-08T12:12:54;13.85;;;11.27;;
21521;SDS011;10922;45.572;10.002;2022-12-08T12:15:38;14.18;;;10.98;;
21521;SDS011;10922;45.572;10.002;2022-12-08T12:18:30;13.32;;;11.18;;
21521;SDS011;10922;45.572;10.002;2022-12-08T12:21:32;13.30;;;11.70;;
21521;SDS011;10922;45.572;10.002;2022-12-08T12:24:03;15.60;;;12.63;;
21521;SDS011;10922;45.572;10.002;2022-12-08T12:26:39;14.95;;;11.80;;
21521;SDS011;10922;45.572;10.002;2022-12-08T12:29:21;15.25;;;12.50;;
21521;SDS011;10922;45.572;10.002;2022-12-08T12:31:52;19.27;;;14.23;;
21521;SDS011;10922;45.572;10.002;2022-12-08T12:34:28;18.25;;;15.25;;
21521;SDS011;10922;45.572;10.002;2022-12-08T12:37:13;21.77;;;15.32;;
21521;SDS011;10922;45.572;10.002;2022-12-08T12:40:05;20.73;;;15.23;;
21521;SDS011;10922;45.572;10.002;2022-12-08T12:50:10;19.30;;;14.77;;
21521;SDS011;10922;45.572;10.002;2022-12-08T12:52:37;19.50;;;14.18;;
21521;SDS011;10922;45.572;10.002;2022-12-08T12:57:49;17.90;;;13.70;;
21521;SDS011;10922;45.572;10.002;2022-12-08T13:00:17;17.10;;;14.20;;
21521;SDS011;10922;45.572;10.002;2022-12-08T13:05:28;20.40;;;15.68;;
21521;SDS011;10922;45.572;10.002;2022-12-08T13:08:01;22.08;;;17.38;;
21521;SDS011;10922;45.572;10.002;2022-12-08T13:10:37;27.47;;;21.47;;
21521;SDS011;10922;45.572;10.002;2022-12-08T13:21:30;48.45;;;32.08;;
21521;SDS011;10922;45.572;10.002;2022-12-08T13:23:49;64.85;;;32.60;;
21521;SDS011;10922;45.572;10.002;2022-12-08T13:26:44;49.50;;;31.60;;
21521;SDS011;10922;45.572;10.002;2022-12-08T13:31:57;39.90;;;27.58;;
21521;SDS011;10922;45.572;10.002;2022-12-08T13:39:32;40.30;;;27.25;;
21521;SDS011;10922;45.572;10.002;2022-12-08T13:42:04;41.30;;;27.47;;
21521;SDS011;10922;45.572;10.002;2022-12-08T13:44:49;37.20;;;26.33;;
21521;SDS011;10922;45.572;10.002;2022-12-08T13:47:43;35.33;;;25.58;;
21521;SDS011;10922;45.572;10.002;2022-12-08T13:50:26;37.58;;;26.27;;
21521;SDS011;10922;45.572;10.002;2022-12-08T13:52:58;33.83;;;23.60;;
21521;SDS011;10922;45.572;10.002;2022-12-08T13:58:06;37.77;;;27.50;;
21521;SDS011;10922;45.572;10.002;2022-12-08T14:00:54;44.42;;;30.00;;
21521;SDS011;10922;45.572;10.002;2022-12-08T14:03:44;43.30;;;29.38;;
21521;SDS011;10922;45.572;10.002;2022-12-08T14:06:15;42.42;;;28.00;;
21521;SDS011;10922;45.572;10.002;2022-12-08T14:08:42;27.67;;;20.47;;
21521;SDS011;10922;45.572;10.002;2022-12-08T14:11:14;18.67;;;16.15;;
21521;SDS011;10922;45.572;10.002;2022-12-08T14:14:07;21.70;;;17.13;;
21521;SDS011;10922;45.572;10.002;2022-12-08T14:17:16;23.75;;;16.67;;
21521;SDS011;10922;45.572;10.002;2022-12-08T14:22:36;20.85;;;16.75;;
21521;SDS011;10922;45.572;10.002;2022-12-08T14:25:04;21.33;;;18.58;;
21521;SDS011;10922;45.572;10.002;2022-12-08T14:27:33;25.83;;;20.37;;
21521;SDS011;10922;45.572;10.002;2022-12-08T14:30:00;27.73;;;21.08;;
21521;SDS011;10922;45.572;10.002;2022-12-08T14:34:53;26.88;;;20.63;;
21521;SDS011;10922;45.572;10.002;2022-12-08T14:37:26;31.00;;;21.42;;
21521;SDS011;10922;45.572;10.002;2022-12-08T14:40:37;29.93;;;21.40;;
21521;SDS011;10922;45.572;10.002;2022-12-08T14:42:52;33.70;;;23.63;;
21521;SDS011;10922;45.572;10.002;2022-12-08T14:45:29;37.45;;;24.38;;
21521;SDS011;10922;45.572;10.002;2022-12-08T14:48:16;34.05;;;24.75;;
21521;SDS011;10922;45.572;10.002;2022-12-08T14:50:53;38.97;;;26.88;;
21521;SDS011;10922;45.572;10.002;2022-12-08T14:53:23;39.13;;;26.33;;
21521;SDS011;10922;45.572;10.002;2022-12-08T14:55:49;35.23;;;25.50;;
21521;SDS011;10922;45.572;10.002;2022-12-08T14:58:36;39.20;;;25.90;;
21521;SDS011;10922;45.572;10.002;2022-12-08T15:01:01;33.88;;;23.85;;
21521;SDS011;10922;45.572;10.002;2022-12-08T15:03:30;34.03;;;24.08;;
21521;SDS011;10922;45.572;10.002;2022-12-08T15:05:57;33.55;;;23.45;;
21521;SDS011;10922;45.572;10.002;2022-12-08T15:08:27;37.80;;;26.53;;
21521;SDS011;10922;45.572;10.002;2022-12-08T15:13:47;62.72;;;39.17;;
21521;SDS011;10922;45.572;10.002;2022-12-08T15:21:29;63.40;;;38.85;;
21521;SDS011;10922;45.572;10.002;2022-12-08T15:24:00;69.43;;;42.33;;
21521;SDS011;10922;45.572;10.002;2022-12-08T15:26:26;64.03;;;40.72;;
21521;SDS011;10922;45.572;10.002;2022-12-08T15:28:53;67.63;;;41.15;;
21521;SDS011;10922;45.572;10.002;2022-12-08T15:31:19;67.22;;;41.67;;
21521;SDS011;10922;45.572;10.002;2022-12-08T15:33:45;68.70;;;42.20;;
21521;SDS011;10922;45.572;10.002;2022-12-08T15:36:11;66.20;;;40.80;;
21521;SDS011;10922;45.572;10.002;2022-12-08T15:38:37;70.17;;;43.17;;
21521;SDS011;10922;45.572;10.002;2022-12-08T15:41:02;69.60;;;42.83;;
21521;SDS011;10922;45.572;10.002;2022-12-08T15:43:29;70.38;;;43.88;;
21521;SDS011;10922;45.572;10.002;2022-12-08T15:45:55;68.45;;;43.88;;
21521;SDS011;10922;45.572;10.002;2022-12-08T15:48:22;69.53;;;43.73;;
21521;SDS011;10922;45.572;10.002;2022-12-08T15:50:52;70.97;;;44.85;;
21521;SDS011;10922;45.572;10.002;2022-12-08T15:53:19;76.15;;;46.03;;
21521;SDS011;10922;45.572;10.002;2022-12-08T15:55:45;74.47;;;46.70;;
21521;SDS011;10922;45.572;10.002;2022-12-08T15:58:16;72.25;;;45.85;;
21521;SDS011;10922;45.572;10.002;2022-12-08T16:00:44;75.60;;;44.93;;
21521;SDS011;10922;45.572;10.002;2022-12-08T16:05:45;69.28;;;45.05;;
21521;SDS011;10922;45.572;10.002;2022-12-08T16:08:12;76.88;;;47.75;;
21521;SDS011;10922;45.572;10.002;2022-12-08T16:10:40;74.63;;;47.07;;
21521;SDS011;10922;45.572;10.002;2022-12-08T16:13:11;75.82;;;47.25;;